Strona główna
METAR-TAF:

METAR-TAF

Lotnisko :

Odiham, Anglia

Szerokość geograficzna: 51-14N, Długość geograficzna: 000-57W, wysokość: 123 m

Aktualna obserwacja pogody

Raport powstał 1 godzina i 1 minut temu, godzina 01:50 UTC
Wiatr 9 kt od północno-północny zachód
Temperatura 10°C
Wilgotność 93%
Ciśnienie 1006 hPa
Widzialność 10 km lub więcej

METAR: EGVO 040150Z AUTO 34009KT 9999 BKN008/// 10/09 Q1006 RERA

czas: 03:51 (02:51 UTC)

Prognoza

Raport powstał 3 godziny i 56 minut temu, godzina 22:55 UTC
Prognoza ważna od 04 godzina 00 UTC do 04 godzina 12 UTC
Wiatr 10 kt od północ
Widzialność 10 km lub więcej
Przerywane chmury na wysokości 3000 ft
Przejściowo
od 04 godzina 00 UTC do 04 godzina 08 UTC
Widzialność: 7000 m
Przerywane chmury na wysokości 800 ft
słaby deszcz, mżawka, deszcz
Prawdopodobieństwo 30% :
Przejściowo
od 04 godzina 00 UTC do 04 godzina 03 UTC
Przerywane chmury na wysokości 600 ft

TAF: EGVO 032255Z 0400/0412 01010KT 9999 BKN030 TEMPO 0400/0408 7000 -RADZ RA BKN008 PROB30 TEMPO 0400/0403 BKN006

Obserwacja i prognoza pogody dla ponad 4000 lotnisk (raport METAR i TAF).

Dostępne stacje oznaczono żółtymi i czerwonymi punktami na mapie.

Najedź kursorem aby zobaczyć nazwę stacji.

Kliknij aby zobaczyć obserwacje i prognozy pogody.

Aby zmienić mapę: kliknij na zielony przycisk z czarnym krzyżykiem, aby powiększyć; na zielony przycisk z myślnikiem, aby pomniejszyć; na zielone strzałki, aby przejść do map sąsiednich.


METAR-TAF: